sensor_id;sensor_type;location;lat;lon;timestamp;pressure;altitude;pressure_sealevel;temperature
69364;BMP280;56526;55.406;86.130;2022-10-17T00:00:39;98269.91;;;7.12
69364;BMP280;56526;55.406;86.130;2022-10-17T00:03:07;98266.91;;;7.19
69364;BMP280;56526;55.406;86.130;2022-10-17T00:05:39;98256.53;;;7.22
69364;BMP280;56526;55.406;86.130;2022-10-17T00:08:06;98273.09;;;7.23
69364;BMP280;56526;55.406;86.130;2022-10-17T00:10:33;98253.13;;;7.22
69364;BMP280;56526;55.406;86.130;2022-10-17T00:13:00;98284.06;;;7.16
69364;BMP280;56526;55.406;86.130;2022-10-17T00:15:27;98277.81;;;7.12
69364;BMP280;56526;55.406;86.130;2022-10-17T00:17:54;98267.56;;;7.11
69364;BMP280;56526;55.406;86.130;2022-10-17T00:20:20;98275.16;;;7.12
69364;BMP280;56526;55.406;86.130;2022-10-17T00:22:46;98253.19;;;7.08
69364;BMP280;56526;55.406;86.130;2022-10-17T00:25:13;98259.81;;;7.06
69364;BMP280;56526;55.406;86.130;2022-10-17T00:27:40;98250.88;;;7.07
69364;BMP280;56526;55.406;86.130;2022-10-17T00:30:11;98254.56;;;7.06
69364;BMP280;56526;55.406;86.130;2022-10-17T00:32:38;98242.28;;;7.01
69364;BMP280;56526;55.406;86.130;2022-10-17T00:35:06;98242.88;;;6.98
69364;BMP280;56526;55.406;86.130;2022-10-17T00:37:33;98248.47;;;6.97
69364;BMP280;56526;55.406;86.130;2022-10-17T00:40:01;98233.47;;;6.97
69364;BMP280;56526;55.406;86.130;2022-10-17T00:42:28;98240.09;;;6.95
69364;BMP280;56526;55.406;86.130;2022-10-17T00:47:55;98242.63;;;6.86
69364;BMP280;56526;55.406;86.130;2022-10-17T00:50:25;98243.50;;;6.81
69364;BMP280;56526;55.406;86.130;2022-10-17T00:52:52;98241.16;;;6.80
69364;BMP280;56526;55.406;86.130;2022-10-17T00:55:25;98243.03;;;6.79
69364;BMP280;56526;55.406;86.130;2022-10-17T00:57:56;98241.66;;;6.82
69364;BMP280;56526;55.406;86.130;2022-10-17T01:00:25;98225.41;;;6.80
69364;BMP280;56526;55.406;86.130;2022-10-17T01:02:51;98221.28;;;6.74
69364;BMP280;56526;55.406;86.130;2022-10-17T01:05:19;98230.88;;;6.70
69364;BMP280;56526;55.406;86.130;2022-10-17T01:07:48;98226.47;;;6.65
69364;BMP280;56526;55.406;86.130;2022-10-17T01:10:16;98223.06;;;6.65
69364;BMP280;56526;55.406;86.130;2022-10-17T01:15:56;98222.28;;;6.64
69364;BMP280;56526;55.406;86.130;2022-10-17T01:21:26;98221.03;;;6.61
69364;BMP280;56526;55.406;86.130;2022-10-17T01:27:18;98210.22;;;6.63
69364;BMP280;56526;55.406;86.130;2022-10-17T01:33:02;98206.44;;;6.69
69364;BMP280;56526;55.406;86.130;2022-10-17T01:35:59;98211.00;;;6.77
69364;BMP280;56526;55.406;86.130;2022-10-17T01:38:47;98197.13;;;6.85
69364;BMP280;56526;55.406;86.130;2022-10-17T01:44:48;98219.09;;;7.03
69364;BMP280;56526;55.406;86.130;2022-10-17T01:47:23;98220.06;;;7.07
69364;BMP280;56526;55.406;86.130;2022-10-17T01:49:56;98234.31;;;7.06
69364;BMP280;56526;55.406;86.130;2022-10-17T01:52:28;98227.97;;;7.07
69364;BMP280;56526;55.406;86.130;2022-10-17T01:55:29;98222.72;;;7.07
69364;BMP280;56526;55.406;86.130;2022-10-17T01:58:04;98212.97;;;7.08
69364;BMP280;56526;55.406;86.130;2022-10-17T02:00:35;98208.47;;;7.08
69364;BMP280;56526;55.406;86.130;2022-10-17T02:03:05;98204.00;;;7.09
69364;BMP280;56526;55.406;86.130;2022-10-17T02:05:35;98213.44;;;7.10
69364;BMP280;56526;55.406;86.130;2022-10-17T02:08:06;98213.91;;;7.12
69364;BMP280;56526;55.406;86.130;2022-10-17T02:10:39;98213.31;;;7.15
69364;BMP280;56526;55.406;86.130;2022-10-17T02:13:10;98212.25;;;7.16
69364;BMP280;56526;55.406;86.130;2022-10-17T02:19:32;98243.34;;;7.14
69364;BMP280;56526;55.406;86.130;2022-10-17T02:33:36;98235.50;;;6.86
69364;BMP280;56526;55.406;86.130;2022-10-17T02:36:10;98222.94;;;6.83
69364;BMP280;56526;55.406;86.130;2022-10-17T02:38:41;98237.66;;;6.84
69364;BMP280;56526;55.406;86.130;2022-10-17T02:41:11;98227.53;;;6.78
69364;BMP280;56526;55.406;86.130;2022-10-17T02:43:41;98242.06;;;6.75
69364;BMP280;56526;55.406;86.130;2022-10-17T02:46:08;98239.34;;;6.67
69364;BMP280;56526;55.406;86.130;2022-10-17T02:48:43;98233.38;;;6.61
69364;BMP280;56526;55.406;86.130;2022-10-17T02:51:16;98227.97;;;6.57
69364;BMP280;56526;55.406;86.130;2022-10-17T02:56:58;98227.66;;;6.45
69364;BMP280;56526;55.406;86.130;2022-10-17T02:59:28;98230.69;;;6.39
69364;BMP280;56526;55.406;86.130;2022-10-17T03:01:55;98243.91;;;6.34
69364;BMP280;56526;55.406;86.130;2022-10-17T03:04:21;98237.22;;;6.27
69364;BMP280;56526;55.406;86.130;2022-10-17T03:06:48;98229.69;;;6.21
69364;BMP280;56526;55.406;86.130;2022-10-17T03:09:14;98221.66;;;6.17
69364;BMP280;56526;55.406;86.130;2022-10-17T03:11:41;98218.22;;;6.17
69364;BMP280;56526;55.406;86.130;2022-10-17T03:14:07;98226.56;;;6.19
69364;BMP280;56526;55.406;86.130;2022-10-17T03:16:33;98222.78;;;6.11
69364;BMP280;56526;55.406;86.130;2022-10-17T03:19:00;98210.13;;;6.00
69364;BMP280;56526;55.406;86.130;2022-10-17T03:21:26;98209.03;;;5.87
69364;BMP280;56526;55.406;86.130;2022-10-17T03:23:54;98211.81;;;5.77
69364;BMP280;56526;55.406;86.130;2022-10-17T03:26:21;98199.09;;;5.70
69364;BMP280;56526;55.406;86.130;2022-10-17T03:28:47;98200.72;;;5.66
69364;BMP280;56526;55.406;86.130;2022-10-17T03:31:15;98205.28;;;5.60
69364;BMP280;56526;55.406;86.130;2022-10-17T03:33:42;98194.09;;;5.55
69364;BMP280;56526;55.406;86.130;2022-10-17T03:36:10;98183.88;;;5.53
69364;BMP280;56526;55.406;86.130;2022-10-17T03:38:40;98186.31;;;5.50
69364;BMP280;56526;55.406;86.130;2022-10-17T03:41:07;98174.34;;;5.44
69364;BMP280;56526;55.406;86.130;2022-10-17T03:43:33;98162.56;;;5.41
69364;BMP280;56526;55.406;86.130;2022-10-17T03:46:01;98153.63;;;5.42
69364;BMP280;56526;55.406;86.130;2022-10-17T03:48:29;98143.22;;;5.37
69364;BMP280;56526;55.406;86.130;2022-10-17T03:51:00;98132.22;;;5.35
69364;BMP280;56526;55.406;86.130;2022-10-17T03:53:29;98123.28;;;5.36
69364;BMP280;56526;55.406;86.130;2022-10-17T03:55:56;98126.13;;;5.40
69364;BMP280;56526;55.406;86.130;2022-10-17T03:58:22;98127.41;;;5.42
69364;BMP280;56526;55.406;86.130;2022-10-17T04:00:48;98130.97;;;5.46
69364;BMP280;56526;55.406;86.130;2022-10-17T04:03:15;98126.03;;;5.45
69364;BMP280;56526;55.406;86.130;2022-10-17T04:05:42;98126.34;;;5.43
69364;BMP280;56526;55.406;86.130;2022-10-17T04:08:09;98120.50;;;5.46
69364;BMP280;56526;55.406;86.130;2022-10-17T04:10:35;98132.75;;;5.51
69364;BMP280;56526;55.406;86.130;2022-10-17T04:13:01;98117.22;;;5.54
69364;BMP280;56526;55.406;86.130;2022-10-17T04:15:28;98124.22;;;5.59
69364;BMP280;56526;55.406;86.130;2022-10-17T04:17:54;98114.69;;;5.63
69364;BMP280;56526;55.406;86.130;2022-10-17T04:20:21;98115.13;;;5.70
69364;BMP280;56526;55.406;86.130;2022-10-17T04:22:47;98107.59;;;5.77
69364;BMP280;56526;55.406;86.130;2022-10-17T04:25:16;98102.47;;;5.86
69364;BMP280;56526;55.406;86.130;2022-10-17T04:27:42;98091.59;;;5.92
69364;BMP280;56526;55.406;86.130;2022-10-17T04:30:09;98090.63;;;6.02
69364;BMP280;56526;55.406;86.130;2022-10-17T04:32:36;98086.91;;;6.17
69364;BMP280;56526;55.406;86.130;2022-10-17T04:35:03;98084.88;;;6.27
69364;BMP280;56526;55.406;86.130;2022-10-17T04:37:29;98082.00;;;6.38
69364;BMP280;56526;55.406;86.130;2022-10-17T04:39:56;98083.63;;;6.47
69364;BMP280;56526;55.406;86.130;2022-10-17T04:42:22;98081.09;;;6.56
69364;BMP280;56526;55.406;86.130;2022-10-17T04:44:48;98078.03;;;6.63
69364;BMP280;56526;55.406;86.130;2022-10-17T04:47:15;98068.97;;;6.69
69364;BMP280;56526;55.406;86.130;2022-10-17T04:49:41;98061.72;;;6.74
69364;BMP280;56526;55.406;86.130;2022-10-17T04:52:07;98063.66;;;6.82
69364;BMP280;56526;55.406;86.130;2022-10-17T04:54:33;98056.13;;;6.89
69364;BMP280;56526;55.406;86.130;2022-10-17T04:56:59;98059.56;;;6.99
69364;BMP280;56526;55.406;86.130;2022-10-17T04:59:27;98059.34;;;7.09
69364;BMP280;56526;55.406;86.130;2022-10-17T05:01:54;98056.75;;;7.17
69364;BMP280;56526;55.406;86.130;2022-10-17T05:04:20;98056.19;;;7.29
69364;BMP280;56526;55.406;86.130;2022-10-17T05:06:47;98057.00;;;7.38
69364;BMP280;56526;55.406;86.130;2022-10-17T05:09:13;98045.72;;;7.46
69364;BMP280;56526;55.406;86.130;2022-10-17T05:11:41;98054.25;;;7.52
69364;BMP280;56526;55.406;86.130;2022-10-17T05:14:07;98059.72;;;7.55
69364;BMP280;56526;55.406;86.130;2022-10-17T05:16:34;98049.63;;;7.57
69364;BMP280;56526;55.406;86.130;2022-10-17T05:19:01;98051.19;;;7.59
69364;BMP280;56526;55.406;86.130;2022-10-17T05:21:29;98052.41;;;7.61
69364;BMP280;56526;55.406;86.130;2022-10-17T05:23:56;98054.16;;;7.66
69364;BMP280;56526;55.406;86.130;2022-10-17T05:26:23;98048.72;;;7.71
69364;BMP280;56526;55.406;86.130;2022-10-17T05:28:51;98051.25;;;7.76
69364;BMP280;56526;55.406;86.130;2022-10-17T05:31:18;98053.25;;;7.79
69364;BMP280;56526;55.406;86.130;2022-10-17T05:33:45;98043.97;;;7.81
69364;BMP280;56526;55.406;86.130;2022-10-17T05:36:11;98039.97;;;7.84
69364;BMP280;56526;55.406;86.130;2022-10-17T05:38:37;98036.41;;;7.88
69364;BMP280;56526;55.406;86.130;2022-10-17T05:41:05;98033.63;;;7.94
69364;BMP280;56526;55.406;86.130;2022-10-17T05:43:32;98034.88;;;8.05
69364;BMP280;56526;55.406;86.130;2022-10-17T05:46:02;98033.34;;;8.21
69364;BMP280;56526;55.406;86.130;2022-10-17T05:48:30;98036.44;;;8.49
69364;BMP280;56526;55.406;86.130;2022-10-17T05:50:58;98033.16;;;8.69
69364;BMP280;56526;55.406;86.130;2022-10-17T05:53:32;98025.06;;;8.74
69364;BMP280;56526;55.406;86.130;2022-10-17T05:56:00;98029.22;;;8.75
69364;BMP280;56526;55.406;86.130;2022-10-17T05:58:27;98019.78;;;8.74
69364;BMP280;56526;55.406;86.130;2022-10-17T06:00:58;98025.22;;;8.78
69364;BMP280;56526;55.406;86.130;2022-10-17T06:03:27;98026.91;;;8.82
69364;BMP280;56526;55.406;86.130;2022-10-17T06:05:53;98019.78;;;8.83
69364;BMP280;56526;55.406;86.130;2022-10-17T06:08:20;98020.09;;;8.81
69364;BMP280;56526;55.406;86.130;2022-10-17T06:10:48;98024.91;;;8.79
69364;BMP280;56526;55.406;86.130;2022-10-17T06:13:16;98019.31;;;8.81
69364;BMP280;56526;55.406;86.130;2022-10-17T06:15:43;98016.38;;;8.82
69364;BMP280;56526;55.406;86.130;2022-10-17T06:18:10;98021.47;;;8.88
69364;BMP280;56526;55.406;86.130;2022-10-17T06:20:36;98016.03;;;8.93
69364;BMP280;56526;55.406;86.130;2022-10-17T06:23:02;98012.44;;;8.97
69364;BMP280;56526;55.406;86.130;2022-10-17T06:25:32;98017.97;;;9.04
69364;BMP280;56526;55.406;86.130;2022-10-17T06:27:58;98008.69;;;9.07
69364;BMP280;56526;55.406;86.130;2022-10-17T06:30:25;98015.84;;;9.06
69364;BMP280;56526;55.406;86.130;2022-10-17T06:32:53;98004.78;;;9.04
69364;BMP280;56526;55.406;86.130;2022-10-17T06:35:20;98003.09;;;9.08
69364;BMP280;56526;55.406;86.130;2022-10-17T06:37:46;98006.78;;;9.16
69364;BMP280;56526;55.406;86.130;2022-10-17T06:40:16;97997.75;;;9.26
69364;BMP280;56526;55.406;86.130;2022-10-17T06:42:43;98001.09;;;9.35
69364;BMP280;56526;55.406;86.130;2022-10-17T06:45:10;97997.53;;;9.39
69364;BMP280;56526;55.406;86.130;2022-10-17T06:47:36;97997.53;;;9.39
69364;BMP280;56526;55.406;86.130;2022-10-17T06:50:03;97991.00;;;9.37
69364;BMP280;56526;55.406;86.130;2022-10-17T06:52:29;97994.25;;;9.34
69364;BMP280;56526;55.406;86.130;2022-10-17T06:54:55;97984.69;;;9.29
69364;BMP280;56526;55.406;86.130;2022-10-17T06:57:21;97991.38;;;9.27
69364;BMP280;56526;55.406;86.130;2022-10-17T06:59:59;97981.59;;;9.27
69364;BMP280;56526;55.406;86.130;2022-10-17T07:02:25;97983.75;;;9.25
69364;BMP280;56526;55.406;86.130;2022-10-17T07:04:51;97984.38;;;9.22
69364;BMP280;56526;55.406;86.130;2022-10-17T07:07:17;97983.66;;;9.13
69364;BMP280;56526;55.406;86.130;2022-10-17T07:09:44;97973.31;;;9.08
69364;BMP280;56526;55.406;86.130;2022-10-17T07:12:10;97968.34;;;9.06
69364;BMP280;56526;55.406;86.130;2022-10-17T07:14:37;97970.50;;;9.04
69364;BMP280;56526;55.406;86.130;2022-10-17T07:17:04;97962.91;;;9.03
69364;BMP280;56526;55.406;86.130;2022-10-17T07:19:30;97965.22;;;9.04
69364;BMP280;56526;55.406;86.130;2022-10-17T07:21:56;97959.63;;;9.06
69364;BMP280;56526;55.406;86.130;2022-10-17T07:24:23;97960.41;;;9.06
69364;BMP280;56526;55.406;86.130;2022-10-17T07:26:49;97955.16;;;9.06
69364;BMP280;56526;55.406;86.130;2022-10-17T07:29:15;97954.19;;;9.11
69364;BMP280;56526;55.406;86.130;2022-10-17T07:31:42;97953.53;;;9.14
69364;BMP280;56526;55.406;86.130;2022-10-17T07:34:09;97946.22;;;9.20
69364;BMP280;56526;55.406;86.130;2022-10-17T07:36:35;97946.78;;;9.25
69364;BMP280;56526;55.406;86.130;2022-10-17T07:39:01;97946.19;;;9.28
69364;BMP280;56526;55.406;86.130;2022-10-17T07:41:27;97941.00;;;9.32
69364;BMP280;56526;55.406;86.130;2022-10-17T07:43:54;97939.91;;;9.33
69364;BMP280;56526;55.406;86.130;2022-10-17T07:46:21;97944.88;;;9.34
69364;BMP280;56526;55.406;86.130;2022-10-17T07:48:47;97943.81;;;9.35
69364;BMP280;56526;55.406;86.130;2022-10-17T07:51:13;97945.38;;;9.36
69364;BMP280;56526;55.406;86.130;2022-10-17T07:53:40;97944.09;;;9.34
69364;BMP280;56526;55.406;86.130;2022-10-17T07:56:09;97940.09;;;9.36
69364;BMP280;56526;55.406;86.130;2022-10-17T07:58:36;97938.34;;;9.40
69364;BMP280;56526;55.406;86.130;2022-10-17T08:01:05;97927.28;;;9.47
69364;BMP280;56526;55.406;86.130;2022-10-17T08:03:33;97935.16;;;9.56
69364;BMP280;56526;55.406;86.130;2022-10-17T08:06:00;97928.22;;;9.63
69364;BMP280;56526;55.406;86.130;2022-10-17T08:08:28;97922.75;;;9.68
69364;BMP280;56526;55.406;86.130;2022-10-17T08:11:00;97925.84;;;9.70
69364;BMP280;56526;55.406;86.130;2022-10-17T08:13:29;97926.78;;;9.74
69364;BMP280;56526;55.406;86.130;2022-10-17T08:16:00;97920.94;;;9.81
69364;BMP280;56526;55.406;86.130;2022-10-17T08:18:26;97929.91;;;9.89
69364;BMP280;56526;55.406;86.130;2022-10-17T08:20:54;97920.22;;;9.93
69364;BMP280;56526;55.406;86.130;2022-10-17T08:23:24;97920.66;;;9.95
69364;BMP280;56526;55.406;86.130;2022-10-17T08:25:50;97920.66;;;9.95
69364;BMP280;56526;55.406;86.130;2022-10-17T08:28:16;97918.38;;;9.93
69364;BMP280;56526;55.406;86.130;2022-10-17T08:30:43;97919.78;;;9.91
69364;BMP280;56526;55.406;86.130;2022-10-17T08:33:09;97910.31;;;9.90
69364;BMP280;56526;55.406;86.130;2022-10-17T08:35:36;97913.72;;;9.90
69364;BMP280;56526;55.406;86.130;2022-10-17T08:38:03;97921.31;;;9.92
69364;BMP280;56526;55.406;86.130;2022-10-17T08:40:31;97918.03;;;9.95
69364;BMP280;56526;55.406;86.130;2022-10-17T08:45:59;97912.38;;;10.17
69364;BMP280;56526;55.406;86.130;2022-10-17T08:48:30;97907.00;;;10.26
69364;BMP280;56526;55.406;86.130;2022-10-17T08:51:20;97897.88;;;10.23
69364;BMP280;56526;55.406;86.130;2022-10-17T08:54:12;97897.75;;;10.20
69364;BMP280;56526;55.406;86.130;2022-10-17T08:56:44;97902.25;;;10.19
69364;BMP280;56526;55.406;86.130;2022-10-17T08:59:16;97895.09;;;10.20
69364;BMP280;56526;55.406;86.130;2022-10-17T09:02:05;97900.38;;;10.20
69364;BMP280;56526;55.406;86.130;2022-10-17T09:04:57;97898.16;;;10.22
69364;BMP280;56526;55.406;86.130;2022-10-17T09:07:47;97899.53;;;10.28
69364;BMP280;56526;55.406;86.130;2022-10-17T09:10:28;97896.03;;;10.36
69364;BMP280;56526;55.406;86.130;2022-10-17T09:13:16;97906.84;;;10.43
69364;BMP280;56526;55.406;86.130;2022-10-17T09:16:49;97901.44;;;10.52
69364;BMP280;56526;55.406;86.130;2022-10-17T09:19:38;97891.59;;;10.89
69364;BMP280;56526;55.406;86.130;2022-10-17T09:22:15;97904.19;;;11.04
69364;BMP280;56526;55.406;86.130;2022-10-17T09:28:01;97898.59;;;10.93
69364;BMP280;56526;55.406;86.130;2022-10-17T09:33:17;97898.91;;;10.79
69364;BMP280;56526;55.406;86.130;2022-10-17T09:35:46;97893.06;;;10.74
69364;BMP280;56526;55.406;86.130;2022-10-17T09:38:18;97896.38;;;10.71
69364;BMP280;56526;55.406;86.130;2022-10-17T09:40:56;97902.31;;;10.68
69364;BMP280;56526;55.406;86.130;2022-10-17T09:43:25;97894.28;;;10.64
69364;BMP280;56526;55.406;86.130;2022-10-17T09:46:13;97900.25;;;10.61
69364;BMP280;56526;55.406;86.130;2022-10-17T09:49:05;97900.56;;;10.60
69364;BMP280;56526;55.406;86.130;2022-10-17T09:51:40;97897.78;;;10.56
69364;BMP280;56526;55.406;86.130;2022-10-17T09:54:19;97898.13;;;10.55
69364;BMP280;56526;55.406;86.130;2022-10-17T09:57:02;97899.34;;;10.57
69364;BMP280;56526;55.406;86.130;2022-10-17T09:59:34;97892.94;;;10.58
69364;BMP280;56526;55.406;86.130;2022-10-17T10:02:22;97896.06;;;10.60
69364;BMP280;56526;55.406;86.130;2022-10-17T10:05:02;97894.97;;;10.61
69364;BMP280;56526;55.406;86.130;2022-10-17T10:07:38;97893.06;;;10.62
69364;BMP280;56526;55.406;86.130;2022-10-17T10:10:23;97899.47;;;10.61
69364;BMP280;56526;55.406;86.130;2022-10-17T10:13:16;97901.34;;;10.60
69364;BMP280;56526;55.406;86.130;2022-10-17T10:15:45;97899.78;;;10.59
69364;BMP280;56526;55.406;86.130;2022-10-17T10:18:34;97891.53;;;10.61
69364;BMP280;56526;55.406;86.130;2022-10-17T10:21:11;97892.31;;;10.61
69364;BMP280;56526;55.406;86.130;2022-10-17T10:23:41;97883.25;;;10.62
69364;BMP280;56526;55.406;86.130;2022-10-17T10:26:22;97896.84;;;10.61
69364;BMP280;56526;55.406;86.130;2022-10-17T10:29:00;97898.34;;;10.62
69364;BMP280;56526;55.406;86.130;2022-10-17T10:31:36;97901.34;;;10.60
69364;BMP280;56526;55.406;86.130;2022-10-17T10:37:32;97900.00;;;10.54
69364;BMP280;56526;55.406;86.130;2022-10-17T10:40:15;97905.19;;;10.51
69364;BMP280;56526;55.406;86.130;2022-10-17T10:42:58;97909.25;;;10.48
69364;BMP280;56526;55.406;86.130;2022-10-17T10:45:38;97905.75;;;10.44
69364;BMP280;56526;55.406;86.130;2022-10-17T10:48:24;97899.84;;;10.38
69364;BMP280;56526;55.406;86.130;2022-10-17T10:51:09;97901.63;;;10.34
69364;BMP280;56526;55.406;86.130;2022-10-17T10:54:15;97899.19;;;10.29
69364;BMP280;56526;55.406;86.130;2022-10-17T10:56:43;97896.75;;;10.24
69364;BMP280;56526;55.406;86.130;2022-10-17T10:59:19;97897.38;;;10.21
69364;BMP280;56526;55.406;86.130;2022-10-17T11:05:02;97897.63;;;10.16
69364;BMP280;56526;55.406;86.130;2022-10-17T11:08:02;97896.09;;;10.15
69364;BMP280;56526;55.406;86.130;2022-10-17T11:11:04;97898.72;;;10.15
69364;BMP280;56526;55.406;86.130;2022-10-17T11:13:40;97897.50;;;10.12
69364;BMP280;56526;55.406;86.130;2022-10-17T11:16:25;97892.53;;;10.11
69364;BMP280;56526;55.406;86.130;2022-10-17T11:19:03;97890.22;;;10.09
69364;BMP280;56526;55.406;86.130;2022-10-17T11:21:42;97894.75;;;10.09
69364;BMP280;56526;55.406;86.130;2022-10-17T11:24:27;97903.44;;;10.09
69364;BMP280;56526;55.406;86.130;2022-10-17T11:27:02;97897.06;;;10.10
69364;BMP280;56526;55.406;86.130;2022-10-17T11:29:35;97909.69;;;10.05
69364;BMP280;56526;55.406;86.130;2022-10-17T11:32:28;97896.13;;;9.94
69364;BMP280;56526;55.406;86.130;2022-10-17T11:35:06;97914.28;;;9.84
69364;BMP280;56526;55.406;86.130;2022-10-17T11:37:44;97921.00;;;9.72
69364;BMP280;56526;55.406;86.130;2022-10-17T11:40:17;97927.78;;;9.61
69364;BMP280;56526;55.406;86.130;2022-10-17T11:43:00;97954.47;;;9.47
69364;BMP280;56526;55.406;86.130;2022-10-17T11:45:34;97948.94;;;9.32
69364;BMP280;56526;55.406;86.130;2022-10-17T11:48:09;97943.59;;;9.20
69364;BMP280;56526;55.406;86.130;2022-10-17T11:50:45;97962.09;;;9.11
69364;BMP280;56526;55.406;86.130;2022-10-17T11:53:27;97962.91;;;9.03
69364;BMP280;56526;55.406;86.130;2022-10-17T11:55:59;97965.75;;;8.98
69364;BMP280;56526;55.406;86.130;2022-10-17T12:01:50;97962.97;;;8.85
69364;BMP280;56526;55.406;86.130;2022-10-17T12:04:44;97982.41;;;8.81
69364;BMP280;56526;55.406;86.130;2022-10-17T12:07:48;97982.53;;;8.76
69364;BMP280;56526;55.406;86.130;2022-10-17T12:10:18;97991.09;;;8.73
69364;BMP280;56526;55.406;86.130;2022-10-17T12:15:56;97992.66;;;8.65
69364;BMP280;56526;55.406;86.130;2022-10-17T12:18:24;98014.41;;;8.62
69364;BMP280;56526;55.406;86.130;2022-10-17T12:20:55;98013.16;;;8.60
69364;BMP280;56526;55.406;86.130;2022-10-17T12:23:28;98010.34;;;8.56
69364;BMP280;56526;55.406;86.130;2022-10-17T12:25:58;98017.06;;;8.54
69364;BMP280;56526;55.406;86.130;2022-10-17T12:28:44;98019.22;;;8.51
69364;BMP280;56526;55.406;86.130;2022-10-17T12:33:51;98027.75;;;8.48
69364;BMP280;56526;55.406;86.130;2022-10-17T12:55:16;98041.53;;;8.54
69364;BMP280;56526;55.406;86.130;2022-10-17T12:57:47;98043.84;;;8.56
69364;BMP280;56526;55.406;86.130;2022-10-17T13:03:15;98046.50;;;8.56
69364;BMP280;56526;55.406;86.130;2022-10-17T13:05:47;98047.91;;;8.53
69364;BMP280;56526;55.406;86.130;2022-10-17T13:08:48;98055.34;;;8.51
69364;BMP280;56526;55.406;86.130;2022-10-17T13:11:23;98045.41;;;8.48
69364;BMP280;56526;55.406;86.130;2022-10-17T13:13:52;98049.00;;;8.43
69364;BMP280;56526;55.406;86.130;2022-10-17T13:16:38;98049.75;;;8.44
69364;BMP280;56526;55.406;86.130;2022-10-17T13:19:15;98056.91;;;8.43
69364;BMP280;56526;55.406;86.130;2022-10-17T13:21:53;98046.69;;;8.42
69364;BMP280;56526;55.406;86.130;2022-10-17T13:24:22;98060.63;;;8.42
69364;BMP280;56526;55.406;86.130;2022-10-17T13:26:49;98064.34;;;8.41
69364;BMP280;56526;55.406;86.130;2022-10-17T13:29:15;98069.31;;;8.43
69364;BMP280;56526;55.406;86.130;2022-10-17T13:31:43;98070.09;;;8.43
69364;BMP280;56526;55.406;86.130;2022-10-17T13:34:21;98077.53;;;8.41
69364;BMP280;56526;55.406;86.130;2022-10-17T13:36:51;98073.16;;;8.37
69364;BMP280;56526;55.406;86.130;2022-10-17T13:39:24;98076.75;;;8.32
69364;BMP280;56526;55.406;86.130;2022-10-17T13:41:55;98087.91;;;8.29
69364;BMP280;56526;55.406;86.130;2022-10-17T13:44:25;98090.38;;;8.26
69364;BMP280;56526;55.406;86.130;2022-10-17T13:46:53;98098.59;;;8.24
69364;BMP280;56526;55.406;86.130;2022-10-17T13:52:04;98089.13;;;8.14
69364;BMP280;56526;55.406;86.130;2022-10-17T13:54:38;98112.50;;;8.07
69364;BMP280;56526;55.406;86.130;2022-10-17T13:57:27;98102.72;;;7.99
69364;BMP280;56526;55.406;86.130;2022-10-17T14:00:06;98105.34;;;7.91
69364;BMP280;56526;55.406;86.130;2022-10-17T14:02:45;98102.38;;;7.83
69364;BMP280;56526;55.406;86.130;2022-10-17T14:05:18;98109.19;;;7.76
69364;BMP280;56526;55.406;86.130;2022-10-17T14:07:53;98108.81;;;7.69
69364;BMP280;56526;55.406;86.130;2022-10-17T14:10:23;98096.41;;;7.61
69364;BMP280;56526;55.406;86.130;2022-10-17T14:13:01;98127.06;;;7.57
69364;BMP280;56526;55.406;86.130;2022-10-17T14:15:33;98132.44;;;7.51
69364;BMP280;56526;55.406;86.130;2022-10-17T14:18:07;98122.81;;;7.47
69364;BMP280;56526;55.406;86.130;2022-10-17T14:20:37;98123.44;;;7.44
69364;BMP280;56526;55.406;86.130;2022-10-17T14:23:04;98130.06;;;7.41
69364;BMP280;56526;55.406;86.130;2022-10-17T14:25:35;98126.47;;;7.37
69364;BMP280;56526;55.406;86.130;2022-10-17T14:30:35;98131.56;;;7.34
69364;BMP280;56526;55.406;86.130;2022-10-17T14:33:22;98132.97;;;7.31
69364;BMP280;56526;55.406;86.130;2022-10-17T14:35:55;98136.66;;;7.30
69364;BMP280;56526;55.406;86.130;2022-10-17T14:38:23;98131.41;;;7.30
69364;BMP280;56526;55.406;86.130;2022-10-17T14:40:59;98136.19;;;7.28
69364;BMP280;56526;55.406;86.130;2022-10-17T14:43:31;98137.25;;;7.27
69364;BMP280;56526;55.406;86.130;2022-10-17T14:46:01;98139.13;;;7.27
69364;BMP280;56526;55.406;86.130;2022-10-17T14:48:29;98147.00;;;7.27
69364;BMP280;56526;55.406;86.130;2022-10-17T14:51:08;98140.19;;;7.26
69364;BMP280;56526;55.406;86.130;2022-10-17T14:53:40;98157.06;;;7.24
69364;BMP280;56526;55.406;86.130;2022-10-17T14:56:26;98145.47;;;7.26
69364;BMP280;56526;55.406;86.130;2022-10-17T14:58:58;98138.66;;;7.24
69364;BMP280;56526;55.406;86.130;2022-10-17T15:01:24;98161.25;;;7.26
69364;BMP280;56526;55.406;86.130;2022-10-17T15:03:50;98155.22;;;7.25
69364;BMP280;56526;55.406;86.130;2022-10-17T15:06:25;98154.69;;;7.23
69364;BMP280;56526;55.406;86.130;2022-10-17T15:08:53;98164.94;;;7.24
69364;BMP280;56526;55.406;86.130;2022-10-17T15:11:19;98166.81;;;7.24
69364;BMP280;56526;55.406;86.130;2022-10-17T15:13:45;98161.03;;;7.22
69364;BMP280;56526;55.406;86.130;2022-10-17T15:16:17;98170.81;;;7.21
69364;BMP280;56526;55.406;86.130;2022-10-17T15:18:48;98171.88;;;7.20
69364;BMP280;56526;55.406;86.130;2022-10-17T15:21:19;98172.97;;;7.19
69364;BMP280;56526;55.406;86.130;2022-10-17T15:23:49;98168.00;;;7.18
69364;BMP280;56526;55.406;86.130;2022-10-17T15:26:25;98178.22;;;7.19
69364;BMP280;56526;55.406;86.130;2022-10-17T15:28:54;98177.75;;;7.17
69364;BMP280;56526;55.406;86.130;2022-10-17T15:31:23;98190.44;;;7.15
69364;BMP280;56526;55.406;86.130;2022-10-17T15:33:50;98185.72;;;7.12
69364;BMP280;56526;55.406;86.130;2022-10-17T15:36:20;98183.09;;;7.12
69364;BMP280;56526;55.406;86.130;2022-10-17T15:38:52;98181.88;;;7.10
69364;BMP280;56526;55.406;86.130;2022-10-17T15:41:21;98197.19;;;7.08
69364;BMP280;56526;55.406;86.130;2022-10-17T15:43:48;98206.94;;;7.07
69364;BMP280;56526;55.406;86.130;2022-10-17T15:46:20;98195.94;;;7.05
69364;BMP280;56526;55.406;86.130;2022-10-17T15:48:50;98205.16;;;7.03
69364;BMP280;56526;55.406;86.130;2022-10-17T15:51:21;98207.31;;;7.01
69364;BMP280;56526;55.406;86.130;2022-10-17T15:53:48;98216.28;;;7.00
69364;BMP280;56526;55.406;86.130;2022-10-17T15:56:28;98221.38;;;6.96
69364;BMP280;56526;55.406;86.130;2022-10-17T15:58:57;98224.56;;;6.93
69364;BMP280;56526;55.406;86.130;2022-10-17T16:01:27;98224.09;;;6.91